Aviation Digital Data Service (ADDS)

Output produced by METARs form (2126 UTC 16 February 2019)
found at http://www.aviationweather.gov/metar/data/
 
Forecast for: RKTN (TAEGU (US/KOR-AF, KR)
Text: TAF RKTN 161700Z 1618/1724 30008KT 9999 SCT040 SCT200 TNM04/1621Z TX06/1706Z
Forecast period: 1800 UTC 16 February 2019 to 0000 UTC 18 February 2019
Forecast type: FROM: standard forecast or significant change
Winds: from the WNW (300 degrees) at 9 MPH (8 knots; 4.1 m/s)
Visibility: 6 or more miles 10+ km)
Ceiling: at least 12,000 feet AGL
Clouds: scattered clouds at 4000 feet AGL
scattered clouds at 20000 feet AGL
Weather: no significant weather forecast for this period